KPGD/PGD METAR and TAF weather

Enter ICAO airport designator
Station Type Date Time Source
KPGD METAR 2020/06/01 14:53 UTC NOAA

KPGD 011453Z 00000KT 10SM CLR 31/23 A3008 RMK AO2 SLP184 T03060228 50008


Station Type Date Time Source
KPGD Decoded METAR 2020/06/01 14:53 UTC NOAA

PUNTA GORDA CHARLOTTE COUNTY, FL, United States (KPGD) 26-55N 82-00W 7M
Jun 01, 2020 - 10:53 AM EDT / 2020.06.01 1453 UTC
Wind: Calm:0
Visibility: 10 mile(s):0
Sky conditions: clear
Temperature: 87.1 F (30.6 C)
Heat index: 94.5 F (34.7 C):1
Dew Point: 73.0 F (22.8 C)
Relative Humidity: 63%
Pressure (altimeter): 30.08 in. Hg (1018 hPa)
Pressure tendency: 0.02 inches (0.8 hPa) higher than three hours ago
ob: KPGD 011453Z 00000KT 10SM CLR 31/23 A3008 RMK AO2 SLP184 T03060228 50008
cycle: 15

Station Type Date Time Source
KPGD TAF 2020/06/01 12:42 UTC NOAA

TAF KPGD 011139Z 0112/0212 VRB03KT P6SM FEW250
FM011400 11007KT P6SM FEW030 SCT250
FM011900 09010KT P6SM VCTS SCT040CB BKN250
FM020300 07007KT P6SM FEW050 SCT250

Example: see airport list